Port Huron, Michigan
Current Conditions -  °F | °C
As of 3:57 PM on Thursday 27 Nov 2014 (Local Time) from CYZR Reporting Station
Light Snow Light Snow  
Wind Chill: 18°   Ceiling: 2600
Heat Index: 30°   Visibility: 7mi
Dew Point: 25°   Wind: 20mph
Humidity: 80%   Direction: 320°NW
Pressure: 30.15"   Gusts: 28mph
Location:  42.98°N, 82.43°W
Report Text: CYZR 272057Z AUTO 32017G24KT 7SM -SN SCT014 SCT019 BKN026 OVC042 M01/M04 A3015 RMK SLP218
Loading
Personal Weather Stations






























Interactive Weather Map New forecast layout! Learn more

10-Day Weather Forecast

Advertisements
Track Severe Weather on mobile